createdAt,value
2018-11-27T00:00:58.514Z,40.05
2018-11-27T00:03:25.770Z,40.12
2018-11-27T00:05:51.190Z,40.14
2018-11-27T00:08:17.525Z,40.08
2018-11-27T00:10:43.888Z,40.13
2018-11-27T00:13:10.271Z,40.14
2018-11-27T00:15:36.608Z,40.12
2018-11-27T00:18:02.943Z,40.03
2018-11-27T00:20:29.339Z,40.15
2018-11-27T00:22:55.744Z,40.34
2018-11-27T00:25:22.098Z,40.33
2018-11-27T00:27:48.436Z,40.18
2018-11-27T00:30:14.792Z,40.26
2018-11-27T00:32:41.133Z,40.28
2018-11-27T00:35:07.474Z,40.22
2018-11-27T00:37:33.860Z,40.28
2018-11-27T00:40:00.126Z,40.21
2018-11-27T00:42:26.445Z,40.41
2018-11-27T00:44:52.774Z,40.42
2018-11-27T00:47:19.152Z,40.44
2018-11-27T00:49:45.505Z,40.49
2018-11-27T00:52:11.864Z,40.58
2018-11-27T00:54:38.214Z,40.49
2018-11-27T00:57:04.556Z,40.65
2018-11-27T00:59:30.955Z,40.52
2018-11-27T01:01:57.289Z,40.54
2018-11-27T01:04:23.607Z,40.62
2018-11-27T01:06:49.996Z,40.66
2018-11-27T01:09:16.340Z,40.55
2018-11-27T01:11:42.771Z,40.61
2018-11-27T01:14:09.098Z,40.71
2018-11-27T01:16:35.453Z,40.62
2018-11-27T01:19:01.825Z,40.55
2018-11-27T01:21:28.210Z,40.76
2018-11-27T01:23:54.590Z,40.79
2018-11-27T01:26:20.924Z,40.63
2018-11-27T01:28:47.265Z,40.70
2018-11-27T01:31:13.600Z,40.74
2018-11-27T01:33:39.980Z,40.72
2018-11-27T01:36:06.310Z,40.76
2018-11-27T01:38:32.646Z,40.80
2018-11-27T01:40:58.997Z,40.99
2018-11-27T01:43:25.417Z,41.02
2018-11-27T01:45:51.760Z,41.08
2018-11-27T01:48:18.147Z,41.00
2018-11-27T01:50:44.486Z,41.02
2018-11-27T01:53:10.815Z,41.05
2018-11-27T01:55:37.162Z,41.18
2018-11-27T01:58:03.513Z,41.25
2018-11-27T02:00:29.923Z,41.17
2018-11-27T02:02:56.312Z,40.96
2018-11-27T02:05:22.596Z,41.59
2018-11-27T02:07:48.983Z,42.05
2018-11-27T02:10:15.314Z,42.02
2018-11-27T02:12:41.654Z,42.05
2018-11-27T02:15:08.088Z,42.05
2018-11-27T02:17:34.420Z,42.05
2018-11-27T02:20:00.758Z,41.97
2018-11-27T02:22:27.103Z,41.89
2018-11-27T02:24:53.512Z,41.82
2018-11-27T02:27:19.884Z,41.80
2018-11-27T02:29:46.213Z,41.62
2018-11-27T02:32:12.545Z,41.53
2018-11-27T02:34:38.933Z,41.41
2018-11-27T02:37:05.298Z,41.27
2018-11-27T02:39:31.698Z,41.17
2018-11-27T02:41:58.039Z,40.92
2018-11-27T02:44:27.236Z,40.82
2018-11-27T02:46:53.618Z,40.71
2018-11-27T02:49:19.958Z,40.56
2018-11-27T02:51:46.365Z,40.42
2018-11-27T02:54:12.691Z,40.34
2018-11-27T02:56:39.105Z,40.31
2018-11-27T02:59:05.518Z,40.12
2018-11-27T03:01:31.818Z,39.96
2018-11-27T03:04:00.417Z,39.83
2018-11-27T03:06:26.744Z,39.91
2018-11-27T03:08:53.124Z,40.01
2018-11-27T03:11:19.463Z,39.72
2018-11-27T03:13:45.793Z,39.86
2018-11-27T03:16:12.170Z,39.72
2018-11-27T03:18:38.528Z,39.62
2018-11-27T03:21:04.869Z,39.61
2018-11-27T03:23:31.256Z,39.70
2018-11-27T03:25:57.624Z,39.46
2018-11-27T03:28:24.000Z,39.60
2018-11-27T03:30:50.368Z,39.44
2018-11-27T03:33:16.679Z,39.49
2018-11-27T03:35:43.054Z,39.51
2018-11-27T03:38:09.499Z,39.43
2018-11-27T03:40:35.879Z,39.25
2018-11-27T03:43:02.172Z,39.41
2018-11-27T03:45:28.484Z,39.44
2018-11-27T03:47:54.839Z,39.30
2018-11-27T03:50:21.221Z,39.25
2018-11-27T03:52:47.556Z,39.83
2018-11-27T03:55:13.881Z,39.57
2018-11-27T03:57:41.324Z,39.06
2018-11-27T04:00:06.580Z,38.94
2018-11-27T04:02:33.005Z,38.83
2018-11-27T04:04:59.302Z,38.64
2018-11-27T04:07:25.631Z,38.47
2018-11-27T04:09:52.005Z,38.41
2018-11-27T04:12:18.330Z,38.47
2018-11-27T04:14:44.733Z,38.31
2018-11-27T04:17:11.085Z,38.06
2018-11-27T04:19:37.420Z,38.04
2018-11-27T04:22:03.765Z,37.99
2018-11-27T04:24:30.275Z,38.02
2018-11-27T04:26:56.627Z,37.93
2018-11-27T04:29:22.973Z,37.99
2018-11-27T04:31:49.332Z,38.19
2018-11-27T04:34:15.665Z,38.11
2018-11-27T04:36:42.034Z,38.32
2018-11-27T04:39:08.332Z,38.71
2018-11-27T04:41:34.678Z,38.16
2018-11-27T04:44:01.042Z,38.19
2018-11-27T04:46:28.511Z,38.41
2018-11-27T04:48:53.762Z,38.36
2018-11-27T04:51:20.085Z,38.30
2018-11-27T04:53:46.431Z,38.33
2018-11-27T04:56:12.834Z,38.24
2018-11-27T04:58:39.176Z,37.96
2018-11-27T05:01:05.646Z,38.08
2018-11-27T05:03:31.981Z,38.04
2018-11-27T05:05:58.331Z,37.64
2018-11-27T05:08:24.671Z,37.68
2018-11-27T05:10:51.068Z,37.63
2018-11-27T05:13:17.416Z,37.64
2018-11-27T05:15:43.840Z,37.60
2018-11-27T05:18:10.230Z,37.74
2018-11-27T05:20:36.604Z,37.61
2018-11-27T05:23:02.953Z,37.51
2018-11-27T05:25:29.349Z,37.53
2018-11-27T05:27:55.630Z,37.40
2018-11-27T05:30:22.016Z,37.38
2018-11-27T05:32:48.364Z,37.48
2018-11-27T05:35:14.720Z,37.51
2018-11-27T05:37:41.047Z,37.51
2018-11-27T05:40:07.390Z,37.32
2018-11-27T05:42:33.759Z,37.38
2018-11-27T05:45:00.201Z,37.19
2018-11-27T05:47:26.546Z,37.45
2018-11-27T05:49:52.887Z,37.43
2018-11-27T05:52:19.220Z,37.10
2018-11-27T05:54:45.609Z,37.38
2018-11-27T05:57:11.957Z,36.99
2018-11-27T05:59:38.285Z,37.32
2018-11-27T06:02:04.645Z,37.03
2018-11-27T06:04:31.135Z,37.06
2018-11-27T06:06:57.421Z,37.06
2018-11-27T06:09:23.749Z,37.49
2018-11-27T06:11:50.238Z,37.47
2018-11-27T06:14:16.598Z,37.38
2018-11-27T06:16:43.018Z,37.22
2018-11-27T06:19:09.358Z,36.84
2018-11-27T06:21:35.685Z,37.00
2018-11-27T06:24:02.021Z,36.99
2018-11-27T06:26:28.375Z,36.77
2018-11-27T06:28:54.780Z,36.87
2018-11-27T06:31:21.196Z,36.87
2018-11-27T06:33:47.535Z,36.96
2018-11-27T06:36:13.894Z,36.86
2018-11-27T06:38:40.244Z,36.90
2018-11-27T06:41:06.640Z,36.77
2018-11-27T06:43:33.040Z,36.48
2018-11-27T06:45:59.380Z,36.90
2018-11-27T06:48:25.804Z,36.59
2018-11-27T06:50:52.202Z,36.62
2018-11-27T06:53:18.627Z,36.66
2018-11-27T06:55:44.959Z,36.64
2018-11-27T06:58:11.308Z,36.49
2018-11-27T07:00:37.690Z,36.56
2018-11-27T07:03:04.010Z,36.69
2018-11-27T07:05:30.452Z,36.64
2018-11-27T07:07:56.806Z,36.12
2018-11-27T07:10:23.189Z,36.66
2018-11-27T07:12:49.640Z,36.70
2018-11-27T07:15:16.059Z,36.71
2018-11-27T07:17:42.470Z,36.65
2018-11-27T07:20:08.909Z,37.11
2018-11-27T07:22:35.264Z,36.92
2018-11-27T07:25:01.646Z,36.64
2018-11-27T07:27:27.959Z,35.99
2018-11-27T07:29:54.285Z,36.71
2018-11-27T07:32:20.662Z,36.37
2018-11-27T07:34:46.978Z,36.40
2018-11-27T07:37:13.361Z,36.00
2018-11-27T07:39:39.692Z,36.25
2018-11-27T07:42:06.091Z,36.36
2018-11-27T07:44:32.517Z,36.09
2018-11-27T07:46:58.969Z,36.89
2018-11-27T07:49:25.315Z,36.61
2018-11-27T07:51:51.688Z,36.47
2018-11-27T07:54:18.065Z,35.87
2018-11-27T07:56:44.501Z,36.24
2018-11-27T07:59:10.848Z,36.13
2018-11-27T08:01:37.195Z,36.64
2018-11-27T08:04:03.605Z,36.26
2018-11-27T08:06:30.153Z,36.10
2018-11-27T08:08:56.484Z,35.63
2018-11-27T08:11:22.875Z,35.75
2018-11-27T08:13:49.281Z,36.03
2018-11-27T08:16:17.802Z,35.79
2018-11-27T08:18:44.324Z,36.00
2018-11-27T08:21:10.677Z,36.41
2018-11-27T08:23:37.215Z,36.06
2018-11-27T08:26:03.645Z,35.97
2018-11-27T08:28:29.989Z,35.86
2018-11-27T08:30:56.378Z,36.00
2018-11-27T08:33:22.826Z,36.02
2018-11-27T08:35:49.428Z,36.15
2018-11-27T08:38:18.008Z,35.72
2018-11-27T08:40:44.417Z,36.13
2018-11-27T08:43:10.762Z,36.10
2018-11-27T08:45:37.275Z,36.00
2018-11-27T08:48:03.607Z,35.87
2018-11-27T08:50:29.938Z,36.80
2018-11-27T08:52:56.650Z,36.87
2018-11-27T08:55:23.540Z,36.34
2018-11-27T08:57:49.903Z,36.01
2018-11-27T09:00:16.290Z,36.95
2018-11-27T09:02:42.665Z,36.55
2018-11-27T09:05:09.029Z,35.95
2018-11-27T09:07:35.430Z,36.63
2018-11-27T09:10:01.783Z,36.17
2018-11-27T09:12:28.317Z,35.86
2018-11-27T09:14:57.184Z,35.73
2018-11-27T09:17:23.592Z,35.91
2018-11-27T09:19:49.945Z,35.62
2018-11-27T09:22:16.280Z,35.75
2018-11-27T09:24:42.727Z,35.89
2018-11-27T09:27:09.159Z,35.69
2018-11-27T09:29:37.759Z,35.79
2018-11-27T09:32:04.125Z,35.72
2018-11-27T09:34:31.680Z,35.85
2018-11-27T09:36:58.024Z,35.74
2018-11-27T09:39:24.376Z,35.96
2018-11-27T09:41:50.778Z,35.73
2018-11-27T09:44:17.266Z,35.75
2018-11-27T09:46:43.653Z,35.74
2018-11-27T09:49:10.067Z,35.87
2018-11-27T09:51:36.416Z,36.24
2018-11-27T09:54:02.803Z,35.90
2018-11-27T09:58:09.870Z,35.96
2018-11-27T10:00:36.251Z,35.81
2018-11-27T10:03:02.586Z,36.07
2018-11-27T10:05:28.996Z,35.84
2018-11-27T10:07:55.338Z,36.04
2018-11-27T10:10:21.717Z,36.01
2018-11-27T10:12:48.050Z,35.85
2018-11-27T10:15:14.448Z,36.05
2018-11-27T10:17:40.803Z,36.42
2018-11-27T10:20:07.153Z,35.68
2018-11-27T10:22:33.587Z,35.78
2018-11-27T10:24:59.961Z,35.94
2018-11-27T10:27:26.274Z,35.75
2018-11-27T10:29:52.643Z,36.09
2018-11-27T10:32:18.974Z,35.93
2018-11-27T10:34:45.335Z,36.13
2018-11-27T10:37:11.721Z,36.22
2018-11-27T10:39:38.108Z,35.68
2018-11-27T10:42:04.647Z,36.26
2018-11-27T10:44:31.156Z,35.62
2018-11-27T10:46:57.520Z,36.87
2018-11-27T10:49:23.943Z,35.98
2018-11-27T10:51:50.312Z,36.57
2018-11-27T13:32:00.545Z,37.35
2018-11-27T13:34:26.881Z,37.28
2018-11-27T13:36:53.278Z,37.01
2018-11-27T13:39:19.639Z,37.40
2018-11-27T13:41:46.007Z,38.64
2018-11-27T13:44:12.411Z,37.27
2018-11-27T13:46:38.843Z,37.61
2018-11-27T13:49:05.195Z,37.48
2018-11-27T13:51:34.687Z,37.25
2018-11-27T13:54:01.053Z,37.55
2018-11-27T13:56:27.395Z,37.36
2018-11-27T13:58:53.784Z,37.68
2018-11-27T14:01:20.249Z,37.28
2018-11-27T14:03:46.771Z,37.54
2018-11-27T14:06:13.141Z,37.33
2018-11-27T14:08:39.886Z,37.52
2018-11-27T14:11:06.280Z,37.34
2018-11-27T14:13:32.756Z,37.20
2018-11-27T14:15:59.108Z,37.48
2018-11-27T14:18:25.437Z,38.67
2018-11-27T14:20:51.792Z,37.50
2018-11-27T14:23:18.160Z,37.33
2018-11-27T14:25:44.530Z,37.27
2018-11-27T14:28:10.988Z,37.56
2018-11-27T14:30:37.326Z,37.48
2018-11-27T14:33:05.760Z,37.66
2018-11-27T14:35:32.142Z,37.80
2018-11-27T14:37:58.488Z,37.42
2018-11-27T14:40:25.180Z,37.83
2018-11-27T14:42:51.523Z,37.35
2018-11-27T14:45:18.825Z,37.44
2018-11-27T14:47:45.180Z,37.29
2018-11-27T14:50:11.506Z,37.35
2018-11-27T14:52:37.895Z,37.53
2018-11-27T14:55:04.429Z,37.30
2018-11-27T14:57:30.751Z,37.32
2018-11-27T14:59:58.149Z,37.40
2018-11-27T15:02:25.037Z,37.48
2018-11-27T15:04:51.438Z,37.62
2018-11-27T15:07:17.770Z,37.40
2018-11-27T15:09:44.228Z,37.43
2018-11-27T15:12:10.574Z,37.91
2018-11-27T15:14:36.984Z,37.81
2018-11-27T15:17:03.362Z,37.54
2018-11-27T15:19:29.752Z,37.51
2018-11-27T15:21:56.138Z,37.45
2018-11-27T15:24:22.537Z,37.52
2018-11-27T15:26:50.917Z,37.64
2018-11-27T15:29:17.497Z,37.60
2018-11-27T15:31:43.868Z,37.66
2018-11-27T15:34:10.216Z,37.54
2018-11-27T15:36:37.123Z,37.61
2018-11-27T15:39:02.943Z,37.83
2018-11-27T15:41:29.322Z,37.82
2018-11-27T15:43:55.736Z,37.66
2018-11-27T15:46:22.179Z,37.80
2018-11-27T15:48:48.508Z,37.74
2018-11-27T15:51:14.846Z,37.74
2018-11-27T15:53:41.250Z,37.70
2018-11-27T15:56:07.591Z,38.02
2018-11-27T15:58:33.977Z,37.70
2018-11-27T16:01:00.357Z,37.87
2018-11-27T16:03:26.675Z,38.12
2018-11-27T16:05:53.063Z,37.96
2018-11-27T16:08:19.532Z,38.11
2018-11-27T16:10:45.867Z,37.98
2018-11-27T16:13:12.365Z,38.29
2018-11-27T16:15:38.571Z,38.45
2018-11-27T16:18:04.929Z,38.64
2018-11-27T16:20:31.316Z,38.61
2018-11-27T16:23:00.186Z,38.44
2018-11-27T16:25:26.516Z,38.36
2018-11-27T16:27:52.914Z,38.67
2018-11-27T16:30:19.400Z,38.45
2018-11-27T16:32:45.719Z,38.54
2018-11-27T16:35:12.048Z,38.45
2018-11-27T16:37:38.444Z,38.43
2018-11-27T16:40:04.788Z,38.59
2018-11-27T16:42:31.133Z,38.38
2018-11-27T16:44:57.467Z,38.45
2018-11-27T16:47:23.819Z,38.67
2018-11-27T16:49:50.158Z,38.45
2018-11-27T16:52:16.563Z,38.39
2018-11-27T16:54:42.997Z,38.51
2018-11-27T16:57:09.333Z,38.76
2018-11-27T16:59:37.523Z,38.56
2018-11-27T17:02:03.927Z,38.73
2018-11-27T17:04:30.293Z,38.65
2018-11-27T17:06:56.634Z,38.49
2018-11-27T17:09:23.031Z,38.51
2018-11-27T17:11:49.315Z,38.53
2018-11-27T17:14:15.683Z,38.64
2018-11-27T17:16:41.998Z,38.61
2018-11-27T17:19:08.345Z,38.52
2018-11-27T17:21:34.718Z,38.71
2018-11-27T17:24:01.135Z,38.67
2018-11-27T17:26:27.506Z,38.78
2018-11-27T17:28:53.836Z,38.92
2018-11-27T17:31:20.257Z,38.97
2018-11-27T17:33:46.583Z,38.83
2018-11-27T17:36:12.929Z,38.92
2018-11-27T17:38:39.263Z,38.79
2018-11-27T17:41:05.624Z,38.96
2018-11-27T17:43:31.954Z,39.09
2018-11-27T17:45:58.287Z,39.17
2018-11-27T17:48:24.694Z,39.22
2018-11-27T17:50:51.042Z,39.15
2018-11-27T17:53:17.389Z,39.32
2018-11-27T17:55:43.818Z,39.08
2018-11-27T17:58:10.146Z,39.17
2018-11-27T18:00:36.578Z,39.23
2018-11-27T18:03:02.947Z,39.32
2018-11-27T18:05:29.272Z,39.09
2018-11-27T18:07:55.673Z,39.04
2018-11-27T18:10:21.967Z,38.95
2018-11-27T18:12:48.327Z,38.83
2018-11-27T18:15:14.627Z,38.67
2018-11-27T18:17:40.959Z,38.70
2018-11-27T18:20:07.398Z,38.50
2018-11-27T18:22:33.847Z,38.60
2018-11-27T18:25:00.183Z,38.61
2018-11-27T18:27:26.545Z,38.55
2018-11-27T18:29:52.930Z,38.54
2018-11-27T18:32:19.266Z,38.52
2018-11-27T18:34:45.698Z,38.41
2018-11-27T18:37:12.065Z,38.38
2018-11-27T18:39:38.439Z,38.35
2018-11-27T18:42:04.713Z,38.30
2018-11-27T18:44:31.234Z,38.43
2018-11-27T18:46:57.677Z,38.32
2018-11-27T18:49:24.023Z,38.35
2018-11-27T18:51:50.371Z,38.32
2018-11-27T18:54:16.785Z,38.26
2018-11-27T18:56:43.118Z,38.26
2018-11-27T18:59:09.477Z,38.17
2018-11-27T19:01:35.820Z,38.18
2018-11-27T19:04:02.174Z,38.11
2018-11-27T19:06:28.556Z,38.12
2018-11-27T19:08:54.895Z,38.10
2018-11-27T19:11:21.240Z,38.05
2018-11-27T19:13:47.586Z,38.02
2018-11-27T19:16:13.916Z,38.05
2018-11-27T19:18:40.292Z,38.09
2018-11-27T19:21:06.621Z,38.09
2018-11-27T19:23:32.967Z,37.97
2018-11-27T19:25:59.293Z,38.02
2018-11-27T19:28:25.638Z,38.02
2018-11-27T19:30:51.991Z,38.09
2018-11-27T19:33:18.321Z,38.02
2018-11-27T19:35:44.651Z,38.01
2018-11-27T19:38:11.031Z,38.09
2018-11-27T19:40:37.312Z,38.09
2018-11-27T19:43:03.651Z,38.06
2018-11-27T19:45:29.995Z,38.17
2018-11-27T19:47:56.330Z,38.10
2018-11-27T19:50:22.659Z,38.16
2018-11-27T19:52:49.026Z,37.83
2018-11-27T19:55:15.355Z,37.99
2018-11-27T19:57:41.687Z,38.12
2018-11-27T20:00:08.064Z,37.96
2018-11-27T20:02:34.415Z,37.93
2018-11-27T20:05:00.803Z,37.83
2018-11-27T20:07:27.133Z,37.71
2018-11-27T20:09:53.477Z,37.90
2018-11-27T20:12:19.904Z,37.87
2018-11-27T20:14:46.351Z,37.91
2018-11-27T20:17:12.719Z,37.93
2018-11-27T20:19:39.058Z,37.87
2018-11-27T20:22:05.398Z,37.80
2018-11-27T20:24:31.741Z,37.99
2018-11-27T20:26:58.076Z,37.80
2018-11-27T20:29:24.421Z,37.88
2018-11-27T20:31:50.767Z,37.80
2018-11-27T20:34:17.083Z,37.77
2018-11-27T20:36:43.497Z,37.61
2018-11-27T20:39:09.850Z,37.87
2018-11-27T20:41:36.166Z,37.85
2018-11-27T20:44:02.505Z,37.85
2018-11-27T20:46:28.851Z,37.89
2018-11-27T20:48:55.251Z,37.67
2018-11-27T20:51:21.574Z,37.80
2018-11-27T20:53:47.965Z,37.74
2018-11-27T20:56:14.309Z,37.74
2018-11-27T20:58:40.645Z,37.61
2018-11-27T21:01:06.966Z,37.69
2018-11-27T21:03:33.356Z,37.50
2018-11-27T21:05:59.702Z,37.60
2018-11-27T21:08:26.153Z,37.47
2018-11-27T21:10:52.567Z,37.87
2018-11-27T21:13:18.943Z,37.74
2018-11-27T21:15:45.272Z,37.77
2018-11-27T21:18:11.616Z,37.64
2018-11-27T21:20:37.974Z,37.86
2018-11-27T21:23:04.304Z,37.76
2018-11-27T21:25:30.679Z,38.05
2018-11-27T21:27:57.006Z,37.99
2018-11-27T21:30:23.354Z,37.93
2018-11-27T21:32:49.695Z,38.09
2018-11-27T21:35:16.086Z,38.19
2018-11-27T21:37:42.470Z,38.02
2018-11-27T21:40:08.803Z,38.12
2018-11-27T21:42:35.136Z,38.07
2018-11-27T21:45:01.459Z,38.19
2018-11-27T21:47:27.894Z,38.23
2018-11-27T21:49:54.224Z,38.30
2018-11-27T21:52:20.608Z,38.31
2018-11-27T21:54:46.939Z,38.13
2018-11-27T21:57:13.332Z,38.28
2018-11-27T21:59:39.683Z,38.41
2018-11-27T22:02:06.016Z,38.41
2018-11-27T22:04:32.370Z,38.41
2018-11-27T22:06:58.694Z,38.24
2018-11-27T22:09:25.026Z,38.34
2018-11-27T22:11:51.365Z,38.31
2018-11-27T22:14:17.694Z,38.39
2018-11-27T22:16:44.035Z,38.37
2018-11-27T22:19:13.504Z,38.42
2018-11-27T22:21:39.824Z,38.42
2018-11-27T22:24:06.154Z,38.38
2018-11-27T22:26:32.571Z,38.28
2018-11-27T22:28:58.967Z,38.54
2018-11-27T22:31:25.258Z,38.48
2018-11-27T22:33:51.592Z,38.51
2018-11-27T22:36:17.923Z,38.57
2018-11-27T22:38:44.262Z,38.47
2018-11-27T22:41:10.698Z,38.45
2018-11-27T22:43:36.979Z,38.69
2018-11-27T22:46:03.304Z,38.64
2018-11-27T22:48:29.637Z,38.53
2018-11-27T22:50:55.984Z,38.45
2018-11-27T22:53:22.360Z,38.47
2018-11-27T22:55:48.707Z,38.41
2018-11-27T22:58:15.056Z,38.50
2018-11-27T23:00:41.480Z,38.67
2018-11-27T23:03:07.774Z,38.52
2018-11-27T23:05:34.159Z,38.39
2018-11-27T23:08:00.511Z,38.44
2018-11-27T23:10:26.862Z,38.41
2018-11-27T23:12:53.195Z,38.43
2018-11-27T23:15:19.515Z,38.37
2018-11-27T23:17:45.912Z,38.50
2018-11-27T23:20:13.438Z,38.36
2018-11-27T23:22:38.625Z,38.22
2018-11-27T23:25:04.918Z,38.18
2018-11-27T23:27:31.240Z,38.27
2018-11-27T23:29:57.622Z,38.40
2018-11-27T23:32:23.996Z,38.27
2018-11-27T23:34:50.321Z,38.25
2018-11-27T23:37:16.653Z,38.18
2018-11-27T23:39:43.010Z,38.19
2018-11-27T23:42:09.422Z,38.02
2018-11-27T23:44:35.752Z,38.25
2018-11-27T23:47:02.430Z,38.14
2018-11-27T23:49:28.780Z,37.99
2018-11-27T23:51:55.123Z,38.10
2018-11-27T23:54:21.465Z,37.88
2018-11-27T23:56:48.882Z,37.94
2018-11-27T23:59:14.188Z,37.98
